Time;durP1;ratioP1;P1;durP2;ratioP2;P2;SDS_P1;SDS_P2;PMS_P1;PMS_P2;Temp;Humidity;BMP_temperature;BMP_pressure;BME280_temperature;BME280_humidity;BME280_pressure;Samples;Min_cycle;Max_cycle;Signal;HPM_P1;HPM_P2
2024/04/15 00:01:42;;;;;;;0.55;0.55;;;;;;;14.38;76.36;99350.53;5419434;26;20000;-66
2024/04/15 00:04:16;;;;;;;0.80;0.80;;;;;;;14.40;76.77;99346.22;5419134;26;20014;-66
2024/04/15 00:06:44;;;;;;;0.80;0.65;;;;;;;14.33;76.65;99330.97;5419158;26;20388;-66
2024/04/15 00:09:15;;;;;;;1.10;0.82;;;;;;;14.31;76.69;99338.72;5419317;26;20004;-66
2024/04/15 00:11:47;;;;;;;3.40;0.73;;;;;;;14.34;76.76;99327.53;5419005;26;20502;-67
2024/04/15 00:14:17;;;;;;;1.23;1.10;;;;;;;14.37;76.85;99320.59;5417483;26;20000;-66
2024/04/15 00:16:48;;;;;;;1.23;1.13;;;;;;;14.38;76.69;99314.59;5418924;26;20032;-66
2024/04/15 00:19:19;;;;;;;0.60;0.60;;;;;;;14.39;76.79;99316.31;5419169;26;20007;-66
2024/04/15 00:21:46;;;;;;;3.55;2.22;;;;;;;14.38;77.05;99314.59;5419217;26;20007;-66
2024/04/15 00:24:17;;;;;;;1.10;1.00;;;;;;;14.39;76.70;99305.19;5418813;26;19999;-66
2024/04/15 00:26:45;;;;;;;1.13;1.00;;;;;;;14.37;76.94;99294.09;5419079;26;20000;-66
2024/04/15 00:29:16;;;;;;;0.85;0.85;;;;;;;14.29;76.99;99290.81;5418651;26;20004;-67
2024/04/15 00:31:44;;;;;;;0.77;0.70;;;;;;;14.15;77.07;99273.16;5418500;26;20010;-66
2024/04/15 00:34:17;;;;;;;0.57;0.57;;;;;;;14.11;77.46;99272.38;5416692;26;20489;-66
2024/04/15 00:36:45;;;;;;;0.60;0.60;;;;;;;14.16;77.54;99266.31;5416823;26;20012;-66
2024/04/15 00:39:16;;;;;;;2.00;1.67;;;;;;;14.07;77.58;99259.63;5418581;26;20015;-66
2024/04/15 00:41:44;;;;;;;0.73;0.73;;;;;;;13.95;77.83;99260.75;5417907;26;20334;-66
2024/04/15 00:44:14;;;;;;;1.88;0.95;;;;;;;13.89;77.84;99278.00;5418434;26;20013;-66
2024/04/15 00:46:42;;;;;;;1.13;1.05;;;;;;;13.84;78.53;99274.69;5417027;26;20328;-66
2024/04/15 00:49:14;;;;;;;1.08;0.98;;;;;;;13.79;78.47;99268.78;5418369;26;19999;-66
2024/04/15 00:51:44;;;;;;;2.70;2.05;;;;;;;13.85;78.82;99266.94;5418388;26;19999;-66
2024/04/15 00:54:15;;;;;;;1.33;1.10;;;;;;;13.87;78.85;99257.50;5418466;26;20333;-66
2024/04/15 00:56:44;;;;;;;1.55;1.23;;;;;;;13.87;79.27;99257.50;5416772;26;20004;-66
2024/04/15 00:59:15;;;;;;;0.70;0.70;;;;;;;13.85;79.06;99253.25;5418186;26;20015;-66
2024/04/15 01:01:43;;;;;;;1.13;0.90;;;;;;;13.87;79.34;99254.06;5418550;26;20315;-66
2024/04/15 01:04:14;;;;;;;1.05;0.93;;;;;;;13.94;79.14;99250.53;5416412;26;20468;-66
2024/04/15 01:06:45;;;;;;;1.52;1.42;;;;;;;13.98;79.11;99258.13;5417983;26;20468;-66
2024/04/15 01:09:16;;;;;;;1.15;1.00;;;;;;;14.01;79.01;99252.09;5418501;26;20003;-66
2024/04/15 01:11:44;;;;;;;0.93;0.85;;;;;;;14.03;79.49;99245.19;5418147;26;20398;-66
2024/04/15 01:14:14;;;;;;;1.35;1.25;;;;;;;14.03;79.33;99243.47;5417875;26;20003;-66
2024/04/15 01:16:42;;;;;;;2.45;1.90;;;;;;;13.93;79.03;99238.56;5386743;26;20049;-66
2024/04/15 01:19:13;;;;;;;4.25;0.80;;;;;;;13.99;78.98;99240.97;5416160;26;20015;-66
2024/04/15 01:21:44;;;;;;;1.20;0.70;;;;;;;14.00;79.00;99240.13;5416206;26;20019;-66
2024/04/15 01:24:17;;;;;;;1.10;1.02;;;;;;;13.96;79.05;99238.50;5418225;26;20011;-66
2024/04/15 01:26:46;;;;;;;1.00;0.90;;;;;;;13.96;79.13;99234.19;5416198;26;20040;-66
2024/04/15 01:29:17;;;;;;;0.82;0.75;;;;;;;13.92;78.65;99221.47;5417739;26;19999;-66
2024/04/15 01:31:45;;;;;;;2.78;1.80;;;;;;;13.76;79.20;99227.81;5417898;26;20015;-66
2024/04/15 01:34:16;;;;;;;3.22;1.35;;;;;;;13.72;79.38;99228.75;5417629;26;20010;-66
2024/04/15 01:36:44;;;;;;;1.42;1.33;;;;;;;13.72;79.30;99214.22;5417823;26;20016;-66
2024/04/15 01:39:17;;;;;;;0.68;0.68;;;;;;;13.69;79.29;99210.88;5417565;26;20465;-66
2024/04/15 01:41:45;;;;;;;0.90;0.90;;;;;;;13.68;79.67;99206.59;5417588;26;20010;-66
2024/04/15 01:44:16;;;;;;;16.13;1.42;;;;;;;13.68;79.63;99204.88;5417485;26;20082;-66
2024/04/15 01:46:44;;;;;;;1.05;0.98;;;;;;;13.70;79.58;99197.19;5415705;26;20349;-66
2024/04/15 01:49:14;;;;;;;0.82;0.60;;;;;;;13.70;79.65;99192.88;5417467;26;19999;-66
2024/04/15 01:51:43;;;;;;;0.70;0.70;;;;;;;13.71;80.18;99186.88;5417615;26;20049;-66
2024/04/15 01:54:13;;;;;;;1.23;1.13;;;;;;;13.70;79.63;99179.22;5420182;26;20015;-66
2024/04/15 01:56:44;;;;;;;0.60;0.60;;;;;;;13.70;79.79;99174.09;5420932;26;19999;-66
2024/04/15 01:59:14;;;;;;;1.17;0.98;;;;;;;13.77;80.04;99173.09;5419171;26;20012;-66
2024/04/15 02:01:42;;;;;;;1.27;1.00;;;;;;;13.82;79.65;99173.84;5419167;26;20011;-66
2024/04/15 02:04:13;;;;;;;0.70;0.70;;;;;;;13.78;79.24;99172.19;5420578;26;20015;-66
2024/04/15 02:06:41;;;;;;;1.20;1.10;;;;;;;13.68;79.65;99170.69;5419415;26;20010;-66
2024/04/15 02:09:11;;;;;;;2.75;1.52;;;;;;;13.67;79.72;99158.78;5420701;26;20000;-66
2024/04/15 02:11:40;;;;;;;1.10;1.00;;;;;;;13.61;79.94;99148.63;5420855;26;20003;-66
2024/04/15 02:14:14;;;;;;;0.82;0.82;;;;;;;13.60;79.79;99139.25;5420841;26;20003;-66
2024/04/15 02:16:42;;;;;;;0.60;0.60;;;;;;;13.60;79.73;99141.84;5420967;26;20015;-66
2024/04/15 02:19:12;;;;;;;0.88;0.82;;;;;;;13.61;80.20;99128.97;5420446;26;20000;-66
2024/04/15 02:21:40;;;;;;;0.52;0.52;;;;;;;13.60;80.17;99136.69;5418930;26;20007;-66
2024/04/15 02:24:13;;;;;;;0.50;0.50;;;;;;;13.56;80.45;99129.94;5420323;26;20023;-66
2024/04/15 02:26:41;;;;;;;1.13;1.05;;;;;;;13.42;80.20;99118.28;5420918;26;20034;-66
2024/04/15 02:29:14;;;;;;;1.17;1.02;;;;;;;13.41;79.86;99116.56;5420303;26;20014;-65
2024/04/15 02:31:42;;;;;;;1.00;0.80;;;;;;;13.41;80.25;99106.31;5418848;26;20070;-66
2024/04/15 02:34:12;;;;;;;0.57;0.57;;;;;;;13.43;80.27;99104.59;5418731;26;20073;-66
2024/04/15 02:36:41;;;;;;;1.20;1.10;;;;;;;13.46;80.46;99102.84;5420343;26;20003;-66
2024/04/15 02:39:12;;;;;;;0.70;0.70;;;;;;;13.47;80.33;99101.94;5420445;26;19999;-66
2024/04/15 02:41:40;;;;;;;1.40;1.30;;;;;;;13.48;80.78;99090.81;5420353;26;20000;-66
2024/04/15 02:44:10;;;;;;;0.60;0.60;;;;;;;13.46;80.57;99087.44;5420155;26;20032;-66
2024/04/15 02:46:41;;;;;;;0.50;0.50;;;;;;;13.29;80.96;99065.56;5420252;26;20014;-66
2024/04/15 02:49:11;;;;;;;1.20;1.05;;;;;;;13.40;80.50;99084.13;5420536;26;19999;-66
2024/04/15 02:51:40;;;;;;;1.80;0.98;;;;;;;13.40;80.42;99075.59;5420547;26;19999;-65
2024/04/15 02:54:10;;;;;;;1.35;1.25;;;;;;;13.39;81.16;99071.34;5419971;26;20486;-66
2024/04/15 02:56:41;;;;;;;0.70;0.70;;;;;;;13.34;80.80;99061.19;5420116;26;20014;-66
2024/04/15 02:59:09;;;;;;;1.30;1.10;;;;;;;13.29;80.94;99070.69;5418219;26;20004;-66
2024/04/15 03:01:40;;;;;;;2.08;1.33;;;;;;;13.30;81.02;99067.28;5419988;26;20075;-66
2024/04/15 03:04:10;;;;;;;1.33;0.98;;;;;;;13.28;81.11;99063.91;5419448;26;20035;-65
2024/04/15 03:06:41;;;;;;;1.63;1.45;;;;;;;13.21;81.08;99057.22;5419876;26;20446;-66
2024/04/15 03:09:10;;;;;;;0.63;0.63;;;;;;;13.20;80.60;99050.41;5418277;26;20010;-66
2024/04/15 03:11:40;;;;;;;0.40;0.40;;;;;;;13.17;80.92;99040.22;5419904;26;20072;-66
2024/04/15 03:14:08;;;;;;;0.80;0.80;;;;;;;13.13;81.08;99038.59;5419779;26;20011;-66
2024/04/15 03:16:39;;;;;;;0.75;0.73;;;;;;;13.12;81.54;99039.50;5417989;26;20077;-66
2024/04/15 03:19:07;;;;;;;0.57;0.57;;;;;;;13.05;81.31;99032.75;5420097;26;20015;-65
2024/04/15 03:21:40;;;;;;;0.55;0.55;;;;;;;13.03;81.31;99021.69;5419670;26;20018;-65
2024/04/15 03:24:08;;;;;;;1.08;0.98;;;;;;;13.06;81.76;99019.09;5420170;26;20000;-66
2024/04/15 03:26:38;;;;;;;1.58;1.10;;;;;;;13.07;81.65;99022.53;5419462;26;20003;-66
2024/04/15 03:29:06;;;;;;;0.73;0.73;;;;;;;13.07;81.49;99018.25;5419943;26;20010;-66
2024/04/15 03:31:37;;;;;;;0.70;0.70;;;;;;;13.08;81.69;99019.91;5417530;26;20007;-66
2024/04/15 03:34:05;;;;;;;1.55;1.17;;;;;;;13.13;81.74;99018.09;5419495;26;20441;-66
2024/04/15 03:36:36;;;;;;;0.65;0.65;;;;;;;13.17;81.57;99014.59;5419713;26;19999;-66
2024/04/15 03:39:09;;;;;;;0.77;0.73;;;;;;;13.24;82.03;99013.59;5417877;26;20010;-65
2024/04/15 03:41:40;;;;;;;1.73;1.23;;;;;;;13.25;81.94;99009.28;5419654;26;20486;-66
2024/04/15 03:44:08;;;;;;;1.95;1.70;;;;;;;13.23;81.26;99008.50;5419352;26;20000;-66
2024/04/15 03:46:38;;;;;;;0.95;0.90;;;;;;;13.21;81.64;98995.72;5417649;26;20003;-65
2024/04/15 03:49:06;;;;;;;1.00;0.90;;;;;;;13.19;81.20;98987.22;5419402;26;20018;-65
2024/04/15 03:51:37;;;;;;;2.30;1.42;;;;;;;13.16;81.51;98986.44;5419059;26;20003;-65
2024/04/15 03:54:08;;;;;;;0.60;0.60;;;;;;;13.07;81.73;98972.13;5417524;26;20015;-66
2024/04/15 03:56:38;;;;;;;1.27;0.57;;;;;;;13.13;81.65;98971.97;5419109;26;20008;-65
2024/04/15 03:59:06;;;;;;;2.97;1.10;;;;;;;13.15;81.51;98977.91;5419283;26;20470;-65
2024/04/15 04:01:37;;;;;;;0.63;0.63;;;;;;;13.18;82.15;98974.44;5419302;26;20011;-66
2024/04/15 04:04:05;;;;;;;0.50;0.50;;;;;;;13.19;81.42;98971.00;5419469;26;20003;-65
2024/04/15 04:06:35;;;;;;;0.63;0.63;;;;;;;13.29;81.93;98982.75;5419405;26;20010;-65
2024/04/15 04:09:04;;;;;;;1.20;1.08;;;;;;;13.31;81.63;98981.81;5419522;26;20010;-66
2024/04/15 04:11:37;;;;;;;1.30;1.20;;;;;;;13.34;81.78;98965.53;5419259;26;20000;-66
2024/04/15 04:14:05;;;;;;;1.48;1.38;;;;;;;13.38;81.52;98973.13;5418952;26;20003;-66
2024/04/15 04:16:36;;;;;;;2.85;2.00;;;;;;;13.48;81.73;98983.16;5418086;26;19999;-65
2024/04/15 04:19:06;;;;;;;5.78;1.48;;;;;;;13.46;81.42;98956.72;5418900;26;20012;-66
2024/04/15 04:21:37;;;;;;;4.28;2.70;;;;;;;13.36;81.04;98963.78;5418825;26;20012;-66
2024/04/15 04:24:05;;;;;;;2.55;1.60;;;;;;;13.39;81.53;98976.50;5417237;26;20040;-66
2024/04/15 04:26:39;;;;;;;3.70;1.55;;;;;;;13.40;81.12;98943.16;5417223;26;20071;-65
2024/04/15 04:29:07;;;;;;;0.85;0.85;;;;;;;13.34;81.03;98966.34;5418998;26;20083;-66
2024/04/15 04:31:39;;;;;;;0.90;0.80;;;;;;;13.38;81.24;98985.94;5418408;26;20047;-66
2024/04/15 04:34:07;;;;;;;0.73;0.73;;;;;;;13.30;81.02;98934.00;5417031;26;20007;-66
2024/04/15 04:36:38;;;;;;;0.65;0.65;;;;;;;13.26;81.36;98950.34;5418616;26;20353;-66
2024/04/15 04:39:06;;;;;;;1.10;1.00;;;;;;;13.32;81.78;98986.06;5418628;26;19999;-67
2024/04/15 04:41:39;;;;;;;0.80;0.80;;;;;;;13.32;81.14;98952.75;5418325;26;20004;-65
2024/04/15 04:44:07;;;;;;;0.70;0.70;;;;;;;13.13;81.54;98918.19;5418535;26;20015;-65
2024/04/15 04:46:38;;;;;;;1.02;0.98;;;;;;;13.13;81.63;98982.22;5418371;26;20035;-65
2024/04/15 04:49:06;;;;;;;1.58;1.45;;;;;;;13.19;81.94;98964.16;5418469;26;20401;-66
2024/04/15 04:51:36;;;;;;;0.55;0.55;;;;;;;13.14;81.94;98899.38;5418091;26;20473;-65
2024/04/15 04:54:04;;;;;;;1.67;0.85;;;;;;;13.27;81.87;98928.09;5417869;26;20000;-65
2024/04/15 04:56:35;;;;;;;0.82;0.82;;;;;;;13.36;82.24;98969.72;5417951;26;20015;-66
2024/04/15 04:59:06;;;;;;;1.60;1.35;;;;;;;13.41;81.87;98946.56;5416417;26;20000;-66
2024/04/15 05:01:37;;;;;;;1.20;1.05;;;;;;;13.46;82.36;98915.69;5416638;26;20416;-66
2024/04/15 05:04:06;;;;;;;0.63;0.63;;;;;;;13.43;81.87;98932.84;5418575;26;20011;-65
2024/04/15 05:06:37;;;;;;;;;;;;;;;13.53;82.26;98951.41;5418906;26;20010;-66
2024/04/15 05:09:05;;;;;;;0.85;0.85;;;;;;;13.63;82.07;98946.91;5418432;26;19925;-65
2024/04/15 05:11:41;;;;;;;0.98;0.80;;;;;;;13.65;81.41;98930.59;5418457;26;20043;-65
2024/04/15 05:14:11;;;;;;;1.13;1.08;;;;;;;13.65;81.84;98947.69;5417885;26;20076;-65
2024/04/15 05:16:42;;;;;;;1.10;0.90;;;;;;;13.78;81.47;98956.75;5418052;26;20004;-65
2024/04/15 05:19:10;;;;;;;1.02;0.90;;;;;;;13.85;81.32;98937.75;5416372;26;20010;-65
2024/04/15 05:21:40;;;;;;;0.60;0.60;;;;;;;13.78;81.36;98925.97;5416067;26;20030;-65
2024/04/15 05:24:08;;;;;;;1.80;1.00;;;;;;;13.92;81.15;98952.94;5417722;26;20004;-65
2024/04/15 05:26:38;;;;;;;0.98;0.90;;;;;;;14.02;81.06;98956.13;5418242;26;20015;-65
2024/04/15 05:29:06;;;;;;;1.35;1.23;;;;;;;14.06;81.14;98938.03;5421583;26;20003;-65
2024/04/15 05:31:39;;;;;;;0.80;0.80;;;;;;;14.06;80.86;98943.16;5419146;26;20076;-65
2024/04/15 05:34:07;;;;;;;1.38;0.90;;;;;;;14.15;80.85;98957.50;5421103;26;20004;-65
2024/04/15 05:36:38;;;;;;;2.53;1.35;;;;;;;14.23;80.99;98950.41;5421074;26;20446;-66
2024/04/15 05:39:06;;;;;;;1.30;1.20;;;;;;;14.21;80.65;98941.91;5421456;26;20000;-65
2024/04/15 05:41:37;;;;;;;0.88;0.88;;;;;;;14.28;80.73;98953.69;5420848;26;20347;-66
2024/04/15 05:44:06;;;;;;;0.88;0.85;;;;;;;14.38;80.45;98957.72;5421185;26;20000;-65
2024/04/15 05:46:51;;;;;;;0.70;0.70;;;;;;;14.46;80.25;98953.25;5421159;26;20014;-65
2024/04/15 05:49:19;;;;;;;0.63;0.63;;;;;;;14.42;80.26;98946.47;5418969;26;19999;-65
2024/04/15 05:51:49;;;;;;;0.50;0.50;;;;;;;14.57;80.06;98955.47;5418951;26;20446;-66
2024/04/15 05:54:17;;;;;;;1.17;0.98;;;;;;;14.63;79.28;98955.31;5421492;26;20014;-66
2024/04/15 05:56:48;;;;;;;1.02;0.93;;;;;;;14.57;79.36;98953.75;5420657;26;20076;-66
2024/04/15 05:59:15;;;;;;;0.88;0.80;;;;;;;14.59;79.21;98958.84;5420801;26;20011;-65
2024/04/15 06:01:49;;;;;;;0.70;0.70;;;;;;;14.69;79.22;98961.13;5421075;26;20345;-66
2024/04/15 06:04:18;;;;;;;1.00;0.98;;;;;;;14.81;79.33;98969.34;5419696;26;20007;-66
2024/04/15 06:06:49;;;;;;;0.50;0.50;;;;;;;14.80;79.09;98942.84;5420487;26;20028;-65
2024/04/15 06:09:17;;;;;;;4.68;1.05;;;;;;;14.89;78.78;98962.25;5420831;26;20006;-65
2024/04/15 06:11:48;;;;;;;1.08;0.98;;;;;;;14.92;78.29;98957.03;5420518;26;20004;-65
2024/04/15 06:14:15;;;;;;;1.15;1.05;;;;;;;14.97;78.13;98950.03;5420456;26;20000;-65
2024/04/15 06:16:49;;;;;;;22.92;3.00;;;;;;;14.95;77.93;98950.06;5420983;26;19999;-65
2024/04/15 06:19:17;;;;;;;1.13;0.98;;;;;;;15.00;77.45;98957.63;5420681;26;20076;-65
2024/04/15 06:21:48;;;;;;;1.08;0.85;;;;;;;15.03;77.79;98963.53;5420442;26;20007;-66
2024/04/15 06:24:16;;;;;;;1.17;1.08;;;;;;;15.12;77.65;98965.81;5420643;26;20004;-65
2024/04/15 06:26:48;;;;;;;0.95;0.70;;;;;;;15.20;77.61;98963.03;5420399;26;20000;-66
2024/04/15 06:29:17;;;;;;;2.25;1.10;;;;;;;15.22;77.21;98974.09;5420805;26;20058;-66
2024/04/15 06:31:50;;;;;;;0.90;0.90;;;;;;;15.25;77.10;98976.59;5420249;26;20081;-65
2024/04/15 06:34:20;;;;;;;1.23;1.13;;;;;;;15.31;77.15;98982.38;5420353;26;20437;-66
2024/04/15 06:36:50;;;;;;;;;;;;;;;15.38;76.98;98976.13;5420847;26;20407;-65
2024/04/15 06:39:18;;;;;;;1.20;1.10;;;;;;;15.46;76.84;98960.50;5419970;26;19924;-66
2024/04/15 06:41:49;;;;;;;1.13;0.80;;;;;;;15.52;76.96;98957.75;5420146;26;20080;-66
2024/04/15 06:44:16;;;;;;;1.00;0.90;;;;;;;15.64;76.65;98954.78;5420502;26;20433;-65
2024/04/15 06:46:50;;;;;;;0.60;0.60;;;;;;;15.78;76.47;98947.44;5420068;26;19999;-65
2024/04/15 06:49:17;;;;;;;0.60;0.60;;;;;;;15.83;76.04;98950.72;5420244;26;20004;-67
2024/04/15 06:51:48;;;;;;;2.15;1.05;;;;;;;15.90;76.07;98949.59;5419794;26;20004;-66
2024/04/15 06:54:16;;;;;;;0.70;0.70;;;;;;;16.04;76.15;98939.69;5420143;26;20003;-65
2024/04/15 06:56:47;;;;;;;0.75;0.60;;;;;;;16.10;76.41;98921.44;5420035;26;20100;-65
2024/04/15 06:59:14;;;;;;;3.75;1.63;;;;;;;16.32;75.73;98928.38;5420168;26;20003;-65
2024/04/15 07:01:45;;;;;;;0.70;0.70;;;;;;;16.41;75.16;98917.78;5419852;26;20068;-65
2024/04/15 07:04:16;;;;;;;1.02;0.90;;;;;;;16.46;74.60;98900.41;5419900;26;20011;-66
2024/04/15 07:06:47;;;;;;;2.70;1.42;;;;;;;16.49;73.80;98908.00;5419667;26;20019;-65
2024/04/15 07:09:15;;;;;;;1.35;1.08;;;;;;;16.49;73.62;98906.28;5427583;26;20003;-65
2024/04/15 07:11:46;;;;;;;2.88;1.00;;;;;;;16.51;73.78;98898.47;5455768;26;20415;-66
2024/04/15 07:14:14;;;;;;;0.73;0.73;;;;;;;16.50;73.73;98901.97;5455787;26;20071;-66
2024/04/15 07:16:44;;;;;;;0.88;0.88;;;;;;;16.52;73.30;98889.91;5455806;26;20002;-66
2024/04/15 07:19:15;;;;;;;1.38;1.13;;;;;;;16.62;73.05;98875.78;5455765;26;20002;-67
2024/04/15 07:21:45;;;;;;;1.05;1.05;;;;;;;16.70;73.02;98863.44;5455728;26;20013;-66
2024/04/15 07:24:13;;;;;;;1.40;1.02;;;;;;;16.84;72.60;98865.50;5455502;26;19999;-66
2024/04/15 07:26:44;;;;;;;1.08;0.93;;;;;;;16.86;72.18;98849.06;5453645;26;20079;-66
2024/04/15 07:29:12;;;;;;;0.77;0.70;;;;;;;16.74;72.17;98821.19;5455566;26;19998;-66
2024/04/15 07:31:42;;;;;;;1.25;0.95;;;;;;;17.00;72.06;98841.63;5455594;26;20072;-66
2024/04/15 07:34:10;;;;;;;11.10;2.67;;;;;;;16.97;71.41;98821.13;5455510;26;20333;-67
2024/04/15 07:36:43;;;;;;;3.00;1.63;;;;;;;16.47;71.60;98696.00;5455677;26;20010;-66
2024/04/15 07:39:12;;;;;;;0.95;0.90;;;;;;;17.34;70.68;98833.34;5455565;26;20010;-66
2024/04/15 07:41:42;;;;;;;1.50;1.02;;;;;;;17.39;70.17;98837.44;5455293;26;20049;-67
2024/04/15 07:44:10;;;;;;;0.90;0.90;;;;;;;17.51;69.70;98819.75;5423561;26;20053;-66
2024/04/15 07:46:41;;;;;;;2.20;1.50;;;;;;;17.60;68.76;98821.97;5455058;26;20071;-66
2024/04/15 07:49:09;;;;;;;1.10;0.88;;;;;;;17.77;68.55;98824.66;5455129;26;20093;-66
2024/04/15 07:51:39;;;;;;;0.55;0.55;;;;;;;17.89;68.14;98811.22;5453685;26;20079;-66
2024/04/15 07:54:11;;;;;;;0.82;0.82;;;;;;;18.11;67.51;98819.69;5455135;26;20011;-66
2024/04/15 07:56:41;;;;;;;0.60;0.60;;;;;;;18.23;66.85;98824.31;5455265;26;20445;-66
2024/04/15 07:59:09;;;;;;;2.03;1.80;;;;;;;18.37;66.16;98837.44;5455010;26;19998;-67
2024/04/15 08:01:40;;;;;;;2.20;1.25;;;;;;;18.42;64.67;98835.47;5455175;26;20002;-66
2024/04/15 08:04:09;;;;;;;0.68;0.68;;;;;;;18.52;64.97;98831.56;5454968;26;19999;-67
2024/04/15 08:06:40;;;;;;;0.60;0.60;;;;;;;18.75;65.38;98822.75;5453167;26;20016;-68
2024/04/15 08:09:11;;;;;;;1.15;1.05;;;;;;;18.80;64.64;98825.09;5453335;26;20358;-67
2024/04/15 08:11:42;;;;;;;1.98;1.60;;;;;;;19.02;65.23;98830.94;5455013;26;20015;-67
2024/04/15 08:14:09;;;;;;;0.98;0.90;;;;;;;19.26;66.56;98834.91;5454755;26;20326;-67
2024/04/15 08:16:40;;;;;;;1.10;1.00;;;;;;;19.42;66.36;98851.38;5454580;26;20367;-67
2024/04/15 08:19:08;;;;;;;1.05;0.95;;;;;;;19.41;66.30;98834.19;5453061;26;20403;-66
2024/04/15 08:21:39;;;;;;;0.70;0.70;;;;;;;19.51;65.62;98848.31;5454806;26;20003;-67
2024/04/15 08:24:07;;;;;;;1.25;1.13;;;;;;;19.65;65.73;98851.03;5455017;26;20022;-67
2024/04/15 08:26:40;;;;;;;0.68;0.68;;;;;;;19.74;65.69;98848.00;5454538;26;20006;-67
2024/04/15 08:29:09;;;;;;;4.38;2.28;;;;;;;19.88;65.55;98855.91;5454875;26;20440;-68
2024/04/15 08:31:40;;;;;;;1.27;0.80;;;;;;;20.00;65.48;98864.78;5454369;26;20003;-68
2024/04/15 08:34:07;;;;;;;4.93;1.30;;;;;;;20.06;65.33;98854.09;5454597;26;19999;-67
2024/04/15 08:36:38;;;;;;;3.20;0.70;;;;;;;20.17;65.46;98856.13;5454400;26;20011;-67
2024/04/15 08:39:06;;;;;;;0.55;0.55;;;;;;;20.18;64.97;98850.03;5454752;26;20003;-67
2024/04/15 08:41:51;;;;;;;1.05;0.98;;;;;;;20.19;65.14;98849.09;5454276;26;20014;-67
2024/04/15 08:44:33;;;;;;;0.60;0.60;;;;;;;20.01;62.96;98841.38;5422819;26;20465;-67
2024/04/15 08:47:12;;;;;;;2.40;1.33;;;;;;;19.95;62.25;98846.91;5454172;26;20013;-67
2024/04/15 08:49:41;;;;;;;0.63;0.60;;;;;;;20.10;63.02;98859.97;5454624;26;20042;-67
2024/04/15 08:52:17;;;;;;;0.75;0.73;;;;;;;20.15;61.83;98857.97;5453627;26;19999;-68
2024/04/15 08:54:45;;;;;;;0.75;0.75;;;;;;;20.14;60.57;98867.50;5454659;26;20456;-67
2024/04/15 08:57:20;;;;;;;1.63;1.27;;;;;;;20.26;60.94;98874.66;5453893;26;20390;-68
2024/04/15 08:59:49;;;;;;;0.52;0.52;;;;;;;20.38;60.31;98873.16;5453889;26;20059;-67
2024/04/15 09:02:20;;;;;;;0.68;0.68;;;;;;;20.47;60.77;98864.88;5453378;26;19999;-67
2024/04/15 09:04:49;;;;;;;0.90;0.90;;;;;;;20.55;61.09;98865.31;5454324;26;20030;-67
2024/04/15 09:07:22;;;;;;;1.42;0.75;;;;;;;20.49;61.15;98852.69;5450640;26;20337;-67
2024/04/15 09:09:50;;;;;;;0.95;0.75;;;;;;;20.58;60.99;98878.13;5454329;26;20014;-67
2024/04/15 09:12:23;;;;;;;0.68;0.68;;;;;;;20.48;60.45;98882.13;5454040;26;20070;-67
2024/04/15 09:14:51;;;;;;;1.38;1.27;;;;;;;20.40;59.97;98868.72;5454094;26;19999;-67
2024/04/15 09:17:22;;;;;;;1.30;0.60;;;;;;;20.35;59.47;98870.72;5453515;26;20014;-67
2024/04/15 09:19:51;;;;;;;0.85;0.85;;;;;;;20.26;59.33;98871.22;5453818;26;20007;-67
2024/04/15 09:22:23;;;;;;;1.90;1.27;;;;;;;20.25;58.87;98885.94;5453621;26;20010;-67
2024/04/15 09:24:53;;;;;;;0.57;0.57;;;;;;;20.21;59.09;98884.38;5454091;26;20043;-67
2024/04/15 09:27:27;;;;;;;0.80;0.63;;;;;;;20.06;59.88;98865.31;5453584;26;20480;-67
2024/04/15 09:29:56;;;;;;;0.60;0.60;;;;;;;20.19;61.00;98896.59;5453584;26;20011;-67
2024/04/15 09:32:26;;;;;;;0.45;0.45;;;;;;;20.11;61.93;98893.56;5453305;26;20007;-67
2024/04/15 09:34:57;;;;;;;1.25;0.85;;;;;;;20.20;62.81;98913.00;5453858;26;20342;-67
2024/04/15 09:37:31;;;;;;;1.02;0.90;;;;;;;20.25;63.10;98926.59;5453797;26;20014;-67
2024/04/15 09:40:02;;;;;;;0.50;0.50;;;;;;;20.30;63.31;98924.59;5453339;26;20010;-67
2024/04/15 09:42:37;;;;;;;1.75;0.82;;;;;;;20.38;63.00;98922.41;5453744;26;20046;-67
2024/04/15 09:45:09;;;;;;;0.68;0.68;;;;;;;20.39;62.45;98918.91;5453300;26;20003;-67
2024/04/15 09:47:42;;;;;;;0.85;0.60;;;;;;;20.51;62.46;98936.41;5453753;26;20076;-68
2024/04/15 09:50:10;;;;;;;0.65;0.65;;;;;;;20.54;62.26;98929.31;5453296;26;19999;-67
2024/04/15 09:52:45;;;;;;;1.15;0.75;;;;;;;20.58;62.17;98917.03;5453159;26;20027;-69
2024/04/15 09:55:22;;;;;;;1.00;0.93;;;;;;;20.64;62.43;98917.53;5451343;26;20075;-67
2024/04/15 09:58:01;;;;;;;4.63;1.95;;;;;;;20.78;61.77;98916.78;5453372;26;20018;-67
2024/04/15 10:00:30;;;;;;;0.80;0.80;;;;;;;20.71;59.04;98905.06;5453183;26;20376;-67
2024/04/15 10:03:10;;;;;;;7.80;1.75;;;;;;;20.67;58.84;98908.75;5452804;26;20003;-67
2024/04/15 10:05:40;;;;;;;1.38;0.95;;;;;;;20.43;59.34;98873.75;5453401;26;20003;-66
2024/04/15 10:08:11;;;;;;;0.68;0.68;;;;;;;20.70;59.64;98924.16;5452879;26;20048;-67
2024/04/15 10:10:41;;;;;;;0.80;0.68;;;;;;;20.75;59.30;98916.97;5452966;26;19999;-67
2024/04/15 10:13:16;;;;;;;1.10;0.82;;;;;;;20.95;58.96;98918.44;5452765;26;20429;-67
2024/04/15 10:15:45;;;;;;;0.75;0.75;;;;;;;21.09;58.89;98921.97;5456909;26;20003;-67
2024/04/15 10:18:17;;;;;;;0.90;0.90;;;;;;;21.19;59.09;98928.34;5456515;26;20017;-66
2024/04/15 10:20:46;;;;;;;1.08;0.98;;;;;;;21.18;58.72;98918.06;5456534;26;20014;-67
2024/04/15 10:23:21;;;;;;;1.85;1.25;;;;;;;21.45;58.96;98923.47;5456390;26;20010;-67
2024/04/15 10:25:49;;;;;;;0.80;0.80;;;;;;;21.69;58.93;98922.84;5456415;26;20014;-68
2024/04/15 10:28:23;;;;;;;0.93;0.75;;;;;;;21.83;57.87;98916.88;5456436;26;20039;-64
2024/04/15 10:30:51;;;;;;;0.60;0.60;;;;;;;21.83;57.17;98888.31;5454770;26;20007;-66
2024/04/15 10:33:22;;;;;;;0.60;0.60;;;;;;;22.05;56.88;98904.34;5455713;26;20003;-69
2024/04/15 10:35:52;;;;;;;2.13;1.52;;;;;;;22.11;57.27;98896.16;5456113;26;19999;-66
2024/04/15 10:38:22;;;;;;;1.50;1.40;;;;;;;22.10;56.54;98902.25;5456613;26;20337;-69
2024/04/15 10:40:52;;;;;;;2.20;1.63;;;;;;;21.96;56.07;98889.25;5456059;26;19999;-68
2024/04/15 10:43:26;;;;;;;0.50;0.50;;;;;;;22.11;55.70;98929.94;5456251;26;20403;-67
2024/04/15 10:45:57;;;;;;;0.60;0.60;;;;;;;22.04;55.50;98933.84;5456460;26;20016;-68
2024/04/15 10:48:30;;;;;;;0.55;0.55;;;;;;;22.08;55.68;98944.88;5456698;26;20002;-68
2024/04/15 10:51:00;;;;;;;0.70;0.70;;;;;;;21.98;55.66;98923.78;5454237;26;20034;-69
2024/04/15 10:53:31;;;;;;;0.50;0.50;;;;;;;22.02;55.69;98930.50;5455851;26;20002;-68
2024/04/15 10:55:59;;;;;;;0.47;0.47;;;;;;;21.82;55.66;98923.84;5455679;26;20076;-67
2024/04/15 10:58:33;;;;;;;0.50;0.50;;;;;;;21.67;56.01;98931.66;5455759;26;19998;-68
2024/04/15 11:01:00;;;;;;;6.28;1.33;;;;;;;21.34;55.92;98870.38;5454180;26;20400;-67
2024/04/15 11:03:31;;;;;;;0.52;0.52;;;;;;;21.57;55.97;98912.38;5455641;26;20009;-68
2024/04/15 11:05:59;;;;;;;0.55;0.55;;;;;;;21.61;56.45;98913.84;5455700;26;20019;-69
2024/04/15 11:08:30;;;;;;;0.63;0.63;;;;;;;21.57;56.12;98901.97;5455576;26;19999;-68
2024/04/15 11:10:58;;;;;;;1.45;0.90;;;;;;;21.64;56.34;98898.94;5455896;26;20034;-68
2024/04/15 11:13:28;;;;;;;0.60;0.60;;;;;;;21.62;55.97;98890.38;5455813;26;20034;-68
2024/04/15 11:15:59;;;;;;;0.70;0.70;;;;;;;21.73;55.76;98892.38;5455794;26;19999;-68
2024/04/15 11:18:30;;;;;;;0.60;0.60;;;;;;;21.81;54.61;98885.78;5453986;26;20007;-68
2024/04/15 11:20:59;;;;;;;0.40;0.40;;;;;;;22.00;53.63;98886.38;5456304;26;19999;-67
2024/04/15 11:23:37;;;;;;;0.70;0.70;;;;;;;22.16;53.31;98875.06;5455978;26;20003;-68
2024/04/15 11:26:05;;;;;;;0.50;0.50;;;;;;;22.26;51.58;98874.44;5455389;26;19999;-66
2024/04/15 11:28:37;;;;;;;0.60;0.60;;;;;;;22.31;50.48;98853.34;5455472;26;20058;-67
2024/04/15 11:31:10;;;;;;;0.70;0.70;;;;;;;22.22;50.58;98839.13;5455866;26;20011;-68
2024/04/15 11:33:51;;;;;;;0.70;0.70;;;;;;;22.28;51.16;98851.78;5455825;26;20018;-68
2024/04/15 11:36:31;;;;;;;0.80;0.80;;;;;;;22.37;50.92;98853.78;5455611;26;20011;-67
2024/04/15 11:39:02;;;;;;;0.63;0.63;;;;;;;22.51;51.56;98845.13;5455528;26;20469;-70
2024/04/15 11:41:30;;;;;;;0.55;0.55;;;;;;;22.68;51.08;98832.78;5455395;26;19999;-67
2024/04/15 11:44:01;;;;;;;0.98;0.93;;;;;;;22.66;49.82;98824.22;5453711;26;20003;-69
2024/04/15 11:46:39;;;;;;;0.50;0.50;;;;;;;22.51;49.91;98830.38;5455162;26;20075;-68
2024/04/15 11:49:10;;;;;;;0.50;0.50;;;;;;;22.47;50.54;98813.28;5455488;26;20003;-66